createdAt,value
2022-10-31T00:00:34.920Z,96474.00
2022-10-31T00:03:05.045Z,96478.66
2022-10-31T00:05:34.195Z,96486.19
2022-10-31T00:08:02.188Z,96470.47
2022-10-31T00:10:32.558Z,96479.16
2022-10-31T00:13:02.960Z,96482.34
2022-10-31T00:15:33.954Z,96481.03
2022-10-31T00:18:01.588Z,96477.53
2022-10-31T00:20:30.657Z,96465.91
2022-10-31T00:23:03.541Z,96471.94
2022-10-31T00:25:35.083Z,96463.22
2022-10-31T00:28:02.807Z,96464.84
2022-10-31T00:30:30.644Z,96464.03
2022-10-31T00:32:59.404Z,96468.91
2022-10-31T00:35:29.138Z,96466.59
2022-10-31T00:38:00.713Z,96453.72
2022-10-31T00:40:28.819Z,96464.22
2022-10-31T00:42:57.717Z,96455.56
2022-10-31T00:45:29.102Z,96452.31
2022-10-31T00:47:58.290Z,96452.06
2022-10-31T00:50:29.456Z,96444.22
2022-10-31T00:53:00.338Z,96447.69
2022-10-31T00:55:27.673Z,96448.22
2022-10-31T00:57:59.200Z,96448.72
2022-10-31T01:00:27.632Z,96442.78
2022-10-31T01:02:57.053Z,96445.53
2022-10-31T01:05:27.096Z,96433.09
2022-10-31T01:07:57.535Z,96432.53
2022-10-31T01:10:28.234Z,96439.03
2022-10-31T01:12:55.553Z,96427.38
2022-10-31T01:15:24.519Z,96431.97
2022-10-31T01:17:52.234Z,96425.19
2022-10-31T01:20:20.009Z,96429.75
2022-10-31T01:22:47.324Z,96430.38
2022-10-31T01:25:14.856Z,96425.50
2022-10-31T01:27:46.941Z,96424.38
2022-10-31T01:30:14.305Z,96419.59
2022-10-31T01:32:44.808Z,96424.38
2022-10-31T01:35:12.929Z,96418.66
2022-10-31T01:37:43.339Z,96424.13
2022-10-31T01:40:13.760Z,96415.50
2022-10-31T01:42:44.374Z,96418.97
2022-10-31T01:45:18.385Z,96411.69
2022-10-31T01:47:48.521Z,96411.13
2022-10-31T01:50:27.330Z,96409.00
2022-10-31T01:52:55.835Z,96409.53
2022-10-31T01:55:30.339Z,96401.13
2022-10-31T01:58:03.491Z,96409.00
2022-10-31T02:00:32.841Z,96404.34
2022-10-31T02:03:01.204Z,96407.84
2022-10-31T02:05:30.663Z,96398.50
2022-10-31T02:08:03.591Z,96404.22
2022-10-31T02:10:32.672Z,96407.16
2022-10-31T02:13:03.432Z,96402.28
2022-10-31T02:15:34.020Z,96398.53
2022-10-31T02:18:02.382Z,96397.47
2022-10-31T02:20:35.953Z,96402.09
2022-10-31T02:23:45.234Z,96390.78
2022-10-31T02:26:38.593Z,96394.81
2022-10-31T02:29:20.484Z,96392.66
2022-10-31T02:32:00.942Z,96392.06
2022-10-31T02:34:38.125Z,96392.34
2022-10-31T02:37:14.280Z,96392.28
2022-10-31T02:39:49.323Z,96388.28
2022-10-31T02:42:31.066Z,96394.19
2022-10-31T02:45:05.821Z,96381.84
2022-10-31T02:47:38.639Z,96388.00
2022-10-31T02:50:12.005Z,96395.28
2022-10-31T02:52:40.279Z,96383.16
2022-10-31T02:55:13.150Z,96387.41
2022-10-31T02:57:43.403Z,96386.66
2022-10-31T03:00:11.708Z,96396.09
2022-10-31T03:02:50.747Z,96387.69
2022-10-31T03:05:47.982Z,96392.13
2022-10-31T03:08:24.496Z,96395.22
2022-10-31T03:10:58.287Z,96385.50
2022-10-31T03:13:35.489Z,96390.34
2022-10-31T03:16:10.287Z,96388.72
2022-10-31T03:18:41.767Z,96390.41
2022-10-31T03:21:15.011Z,96389.88
2022-10-31T03:23:45.942Z,96383.84
2022-10-31T03:26:22.170Z,96386.00
2022-10-31T03:28:54.425Z,96386.06
2022-10-31T03:31:27.604Z,96387.72
2022-10-31T03:34:00.903Z,96382.88
2022-10-31T03:36:34.042Z,96383.91
2022-10-31T03:39:06.049Z,96377.69
2022-10-31T03:41:44.780Z,96378.31
2022-10-31T03:44:19.280Z,96374.78
2022-10-31T03:46:52.099Z,96376.97
2022-10-31T03:49:21.070Z,96377.53
2022-10-31T03:51:54.607Z,96379.41
2022-10-31T03:54:27.628Z,96379.38
2022-10-31T03:57:01.286Z,96379.69
2022-10-31T03:59:34.021Z,96378.31
2022-10-31T04:02:07.424Z,96382.88
2022-10-31T04:04:38.140Z,96384.03
2022-10-31T04:07:09.505Z,96380.47
2022-10-31T04:09:40.721Z,96390.56
2022-10-31T04:12:11.353Z,96387.81
2022-10-31T04:15:03.799Z,96384.31
2022-10-31T04:17:34.661Z,96383.47
2022-10-31T04:20:03.975Z,96378.09
2022-10-31T04:22:31.405Z,96387.88
2022-10-31T04:24:58.786Z,96386.75
2022-10-31T04:27:27.446Z,96380.53
2022-10-31T04:29:58.540Z,96378.63
2022-10-31T04:32:28.693Z,96372.22
2022-10-31T04:34:56.764Z,96378.69
2022-10-31T04:37:29.293Z,96372.47
2022-10-31T04:39:56.651Z,96376.81
2022-10-31T04:42:48.635Z,96380.94
2022-10-31T04:45:20.063Z,96377.38
2022-10-31T04:47:51.773Z,96373.84
2022-10-31T04:50:19.777Z,96375.53
2022-10-31T04:52:52.403Z,96373.34
2022-10-31T04:55:26.069Z,96382.09
2022-10-31T04:58:14.379Z,96379.00
2022-10-31T05:00:42.261Z,96380.69
2022-10-31T05:03:09.742Z,96381.69
2022-10-31T05:05:37.181Z,96379.34
2022-10-31T05:08:06.605Z,96386.59
2022-10-31T05:10:33.968Z,96390.19
2022-10-31T05:13:05.308Z,96376.13
2022-10-31T05:15:51.808Z,96381.00
2022-10-31T05:18:39.360Z,96385.31
2022-10-31T05:21:44.989Z,96382.34
2022-10-31T05:24:14.064Z,96385.25
2022-10-31T05:26:46.776Z,96384.72
2022-10-31T05:29:14.776Z,96380.41
2022-10-31T05:31:42.164Z,96368.81
2022-10-31T05:34:19.534Z,96377.09
2022-10-31T05:37:13.039Z,96376.00
2022-10-31T05:39:41.972Z,96374.16
2022-10-31T05:42:14.685Z,96377.16
2022-10-31T05:44:42.809Z,96366.66
2022-10-31T05:47:33.635Z,96369.34
2022-10-31T05:50:31.739Z,96382.34
2022-10-31T05:53:09.210Z,96372.84
2022-10-31T05:55:40.152Z,96383.63
2022-10-31T05:58:20.765Z,96383.97
2022-10-31T06:01:01.836Z,96371.31
2022-10-31T06:03:29.581Z,96383.19
2022-10-31T06:05:58.158Z,96385.03
2022-10-31T06:08:30.909Z,96388.03
2022-10-31T06:11:03.292Z,96387.03
2022-10-31T06:13:49.336Z,96388.09
2022-10-31T06:16:22.197Z,96387.19
2022-10-31T06:18:50.776Z,96382.59
2022-10-31T06:21:19.335Z,96390.28
2022-10-31T06:23:49.409Z,96388.41
2022-10-31T06:26:47.226Z,96387.56
2022-10-31T06:29:16.389Z,96383.50
2022-10-31T06:32:05.551Z,96393.81
2022-10-31T06:34:38.219Z,96400.25
2022-10-31T06:37:07.846Z,96392.97
2022-10-31T06:39:35.930Z,96399.47
2022-10-31T06:42:07.951Z,96405.97
2022-10-31T06:44:36.117Z,96409.28
2022-10-31T06:47:22.265Z,96400.22
2022-10-31T06:50:22.348Z,96403.47
2022-10-31T06:52:53.909Z,96410.78
2022-10-31T06:55:23.324Z,96420.00
2022-10-31T06:57:52.356Z,96405.47
2022-10-31T07:00:23.758Z,96416.78
2022-10-31T07:02:57.965Z,96416.28
2022-10-31T07:05:26.424Z,96413.63
2022-10-31T07:07:54.778Z,96409.50
2022-10-31T07:10:22.956Z,96419.28
2022-10-31T07:13:02.518Z,96418.69
2022-10-31T07:15:35.999Z,96415.44
2022-10-31T07:18:04.280Z,96417.63
2022-10-31T07:20:32.543Z,96413.00
2022-10-31T07:23:00.552Z,96420.84
2022-10-31T07:25:29.013Z,96420.31
2022-10-31T07:28:04.290Z,96419.78
2022-10-31T07:30:31.859Z,96423.31
2022-10-31T07:32:59.503Z,96421.09
2022-10-31T07:35:44.496Z,96419.34
2022-10-31T07:38:15.132Z,96428.75
2022-10-31T07:40:43.590Z,96421.97
2022-10-31T07:43:14.452Z,96429.97
2022-10-31T07:46:11.396Z,96426.81
2022-10-31T07:48:57.571Z,96420.66
2022-10-31T07:51:46.446Z,96413.28
2022-10-31T07:54:32.780Z,96426.00
2022-10-31T07:57:00.121Z,96421.16
2022-10-31T07:59:28.900Z,96427.69
2022-10-31T08:01:56.403Z,96422.59
2022-10-31T08:04:32.753Z,96434.78
2022-10-31T08:07:19.241Z,96435.09
2022-10-31T08:09:53.524Z,96421.25
2022-10-31T08:12:24.844Z,96430.22
2022-10-31T08:14:55.267Z,96431.25
2022-10-31T08:17:22.663Z,96432.06
2022-10-31T08:20:05.487Z,96425.84
2022-10-31T08:22:41.190Z,96429.91
2022-10-31T08:25:11.611Z,96428.00
2022-10-31T08:27:39.858Z,96420.19
2022-10-31T08:30:12.373Z,96435.25
2022-10-31T08:32:46.398Z,96429.84
2022-10-31T08:35:33.293Z,96429.91
2022-10-31T08:38:38.928Z,96434.13
2022-10-31T08:41:09.520Z,96423.63
2022-10-31T08:43:37.787Z,96433.69
2022-10-31T08:46:07.114Z,96426.56
2022-10-31T08:48:34.589Z,96433.84
2022-10-31T08:51:04.098Z,96437.44
2022-10-31T08:53:32.660Z,96428.22
2022-10-31T08:56:21.965Z,96435.00
2022-10-31T08:58:49.388Z,96429.84
2022-10-31T09:01:20.555Z,96441.50
2022-10-31T09:03:47.706Z,96436.94
2022-10-31T09:06:15.540Z,96436.44
2022-10-31T09:08:42.960Z,96437.22
2022-10-31T09:11:10.311Z,96434.78
2022-10-31T09:14:10.199Z,96434.53
2022-10-31T09:16:59.318Z,96436.38
2022-10-31T09:19:42.052Z,96437.47
2022-10-31T09:22:09.455Z,96436.09
2022-10-31T09:24:36.830Z,96443.75
2022-10-31T09:27:04.616Z,96443.75
2022-10-31T09:29:32.795Z,96445.06
2022-10-31T09:32:03.288Z,96449.91
2022-10-31T09:34:32.568Z,96447.22
2022-10-31T09:37:26.602Z,96446.13
2022-10-31T09:39:56.751Z,96451.84
2022-10-31T09:42:53.401Z,96447.75
2022-10-31T09:45:35.953Z,96453.16
2022-10-31T09:48:31.423Z,96452.38
2022-10-31T09:51:29.731Z,96444.25
2022-10-31T09:54:22.875Z,96449.38
2022-10-31T09:56:51.676Z,96446.75
2022-10-31T09:59:25.384Z,96453.47
2022-10-31T10:01:57.457Z,96448.53
2022-10-31T10:04:39.262Z,96450.78
2022-10-31T10:07:20.678Z,96454.81
2022-10-31T10:10:16.283Z,96448.59
2022-10-31T10:13:28.394Z,96463.00
2022-10-31T10:16:08.570Z,96463.00
2022-10-31T10:18:43.549Z,96466.50
2022-10-31T10:21:24.514Z,96466.50
2022-10-31T10:24:18.955Z,96468.13
2022-10-31T10:26:56.156Z,96467.53
2022-10-31T10:29:34.357Z,96469.78
2022-10-31T10:32:11.202Z,96465.13
2022-10-31T10:34:45.856Z,96463.28
2022-10-31T10:37:28.255Z,96463.25
2022-10-31T10:40:03.886Z,96465.97
2022-10-31T10:42:31.255Z,96469.53
2022-10-31T10:44:59.341Z,96473.84
2022-10-31T10:47:31.541Z,96473.84
2022-10-31T10:50:08.836Z,96469.47
2022-10-31T10:52:50.197Z,96475.22
2022-10-31T10:55:28.360Z,96472.78
2022-10-31T10:57:59.992Z,96469.56
2022-10-31T11:00:33.653Z,96476.06
2022-10-31T11:03:08.122Z,96486.81
2022-10-31T11:05:42.768Z,96483.81
2022-10-31T11:08:11.935Z,96490.06
2022-10-31T11:10:39.371Z,96490.56
2022-10-31T11:13:22.583Z,96479.44
2022-10-31T11:16:01.550Z,96487.06
2022-10-31T11:18:31.718Z,96484.28
2022-10-31T11:21:01.004Z,96488.94
2022-10-31T11:23:30.451Z,96493.88
2022-10-31T11:25:58.954Z,96494.38
2022-10-31T11:28:26.925Z,96504.63
2022-10-31T11:30:57.150Z,96511.09
2022-10-31T11:33:32.213Z,96511.63
2022-10-31T11:36:02.062Z,96510.31
2022-10-31T11:38:36.111Z,96511.63
2022-10-31T11:41:14.453Z,96515.72
2022-10-31T11:43:49.968Z,96515.97
2022-10-31T11:46:21.956Z,96516.78
2022-10-31T11:48:51.961Z,96520.06
2022-10-31T11:51:23.089Z,96516.03
2022-10-31T11:53:59.909Z,96530.34
2022-10-31T11:56:38.548Z,96525.22
2022-10-31T11:59:16.146Z,96528.72
2022-10-31T12:01:49.592Z,96534.44
2022-10-31T12:04:17.613Z,96532.56
2022-10-31T12:06:46.829Z,96531.66
2022-10-31T12:09:23.407Z,96527.34
2022-10-31T12:12:11.466Z,96526.78
2022-10-31T12:14:47.656Z,96527.31
2022-10-31T12:17:18.827Z,96528.09
2022-10-31T12:19:58.048Z,96525.94
2022-10-31T12:22:33.277Z,96532.16
2022-10-31T12:25:28.082Z,96527.81
2022-10-31T12:28:12.636Z,96518.06
2022-10-31T12:30:56.117Z,96520.69
2022-10-31T12:33:39.915Z,96527.28
2022-10-31T12:36:21.552Z,96537.75
2022-10-31T12:39:12.072Z,96542.06
2022-10-31T12:41:47.989Z,96530.66
2022-10-31T12:44:41.960Z,96544.59
2022-10-31T12:47:48.566Z,96538.09
2022-10-31T12:50:28.873Z,96540.22
2022-10-31T12:53:10.613Z,96543.72
2022-10-31T12:55:45.660Z,96545.69
2022-10-31T12:58:22.017Z,96550.53
2022-10-31T13:00:54.628Z,96553.47
2022-10-31T13:03:30.016Z,96553.22
2022-10-31T13:06:03.634Z,96548.03
2022-10-31T13:08:39.333Z,96553.44
2022-10-31T13:11:11.954Z,96559.63
2022-10-31T13:13:45.393Z,96552.59
2022-10-31T13:16:16.598Z,96553.75
2022-10-31T13:18:48.795Z,96546.19
2022-10-31T13:21:22.818Z,96551.06
2022-10-31T13:23:52.497Z,96556.16
2022-10-31T13:26:25.002Z,96556.44
2022-10-31T13:29:05.051Z,96562.91
2022-10-31T13:31:32.454Z,96562.09
2022-10-31T13:34:04.905Z,96566.19
2022-10-31T13:36:40.462Z,96559.94
2022-10-31T13:39:24.697Z,96554.84
2022-10-31T13:41:58.357Z,96549.13
2022-10-31T13:44:30.532Z,96549.34
2022-10-31T13:46:59.704Z,96547.94
2022-10-31T13:49:38.764Z,96545.75
2022-10-31T13:52:17.662Z,96545.69
2022-10-31T13:54:46.640Z,96559.47
2022-10-31T13:57:20.058Z,96543.75
2022-10-31T13:59:52.548Z,96551.84
2022-10-31T14:02:28.921Z,96545.97
2022-10-31T14:05:00.188Z,96561.72
2022-10-31T14:07:29.115Z,96555.25
2022-10-31T14:09:59.408Z,96565.63
2022-10-31T14:12:32.157Z,96574.78
2022-10-31T14:15:07.079Z,96570.69
2022-10-31T14:17:47.026Z,96582.38
2022-10-31T14:20:32.443Z,96593.19
2022-10-31T14:25:34.538Z,96596.22
2022-10-31T14:28:03.648Z,96603.75
2022-10-31T14:30:34.681Z,96598.06
2022-10-31T14:33:11.920Z,96601.16
2022-10-31T14:36:01.794Z,96595.56
2022-10-31T14:38:45.302Z,96594.44
2022-10-31T14:41:33.247Z,96589.84
2022-10-31T14:44:52.740Z,96568.56
2022-10-31T14:47:37.198Z,96576.34
2022-10-31T14:50:22.334Z,96565.53
2022-10-31T14:52:53.070Z,96572.34
2022-10-31T14:55:21.908Z,96575.88
2022-10-31T14:57:53.459Z,96573.41
2022-10-31T15:00:23.826Z,96589.59
2022-10-31T15:03:05.978Z,96580.34
2022-10-31T15:05:35.823Z,96584.66
2022-10-31T15:08:03.285Z,96576.13
2022-10-31T15:10:32.945Z,96570.97
2022-10-31T15:13:09.585Z,96578.06
2022-10-31T15:15:37.954Z,96572.19
2022-10-31T15:18:18.689Z,96579.22
2022-10-31T15:20:47.087Z,96580.78
2022-10-31T15:23:21.858Z,96564.09
2022-10-31T15:25:49.371Z,96566.56
2022-10-31T15:28:23.711Z,96559.19
2022-10-31T15:30:53.808Z,96576.75
2022-10-31T15:33:25.013Z,96561.97
2022-10-31T15:35:57.119Z,96563.88
2022-10-31T15:38:25.503Z,96557.72
2022-10-31T15:41:00.639Z,96567.16
2022-10-31T15:43:32.718Z,96572.19
2022-10-31T15:46:01.532Z,96574.03
2022-10-31T15:48:30.752Z,96577.00
2022-10-31T15:50:58.999Z,96575.69
2022-10-31T15:53:28.642Z,96574.38
2022-10-31T15:55:58.322Z,96574.38
2022-10-31T15:58:28.449Z,96573.84
2022-10-31T16:01:00.579Z,96568.59
2022-10-31T16:03:30.687Z,96565.66
2022-10-31T16:06:00.049Z,96569.97
2022-10-31T16:08:33.722Z,96566.22
2022-10-31T16:11:15.195Z,96563.03
2022-10-31T16:13:59.109Z,96571.22
2022-10-31T16:16:36.155Z,96580.06
2022-10-31T16:19:13.629Z,96571.22
2022-10-31T16:21:41.195Z,96571.69
2022-10-31T16:24:19.051Z,96569.56
2022-10-31T16:26:50.491Z,96564.97
2022-10-31T16:29:29.135Z,96572.84
2022-10-31T16:31:56.597Z,96565.06
2022-10-31T16:34:27.059Z,96566.38
2022-10-31T16:36:54.588Z,96567.69
2022-10-31T16:39:22.026Z,96567.13
2022-10-31T16:41:52.171Z,96563.91
2022-10-31T16:44:22.770Z,96562.84
2022-10-31T16:47:14.970Z,96559.06
2022-10-31T16:49:49.052Z,96564.75
2022-10-31T16:52:16.780Z,96550.38
2022-10-31T16:54:45.721Z,96554.69
2022-10-31T16:57:17.979Z,96547.03
2022-10-31T16:59:47.454Z,96544.13
2022-10-31T17:02:17.189Z,96555.41
2022-10-31T17:04:47.579Z,96548.94
2022-10-31T17:07:16.967Z,96559.19
2022-10-31T17:09:44.289Z,96554.25
2022-10-31T17:12:18.684Z,96548.63
2022-10-31T17:14:49.213Z,96541.34
2022-10-31T17:17:16.540Z,96549.69
2022-10-31T17:19:45.287Z,96542.38
2022-10-31T17:22:13.273Z,96551.56
2022-10-31T17:24:42.682Z,96548.88
2022-10-31T17:27:12.871Z,96541.91
2022-10-31T17:29:43.973Z,96539.69
2022-10-31T17:32:11.312Z,96552.63
2022-10-31T17:34:46.890Z,96559.09
2022-10-31T17:37:14.259Z,96567.53
2022-10-31T17:39:41.637Z,96582.31
2022-10-31T17:42:11.818Z,96586.41
2022-10-31T17:44:39.300Z,96582.59
2022-10-31T17:47:14.043Z,96581.53
2022-10-31T17:49:41.389Z,96575.53
2022-10-31T17:52:13.249Z,96575.28
2022-10-31T17:54:40.611Z,96571.53
2022-10-31T17:57:08.517Z,96567.75
2022-10-31T17:59:40.179Z,96552.38
2022-10-31T18:02:09.194Z,96558.59
2022-10-31T18:04:39.608Z,96572.41
2022-10-31T18:07:07.992Z,96561.56
2022-10-31T18:09:39.722Z,96553.19
2022-10-31T18:12:07.384Z,96563.75
2022-10-31T18:14:36.027Z,96567.19
2022-10-31T18:17:06.302Z,96563.44
2022-10-31T18:19:35.072Z,96567.28
2022-10-31T18:22:03.262Z,96564.81
2022-10-31T18:24:42.000Z,96558.59
2022-10-31T18:27:09.408Z,96561.28
2022-10-31T18:29:36.832Z,96552.72
2022-10-31T18:32:09.362Z,96543.47
2022-10-31T18:34:37.305Z,96554.84
2022-10-31T18:37:05.471Z,96559.94
2022-10-31T18:39:35.972Z,96561.25
2022-10-31T18:42:05.226Z,96556.41
2022-10-31T18:44:32.670Z,96551.00
2022-10-31T18:46:59.998Z,96547.50
2022-10-31T18:49:27.441Z,96552.06
2022-10-31T18:51:54.763Z,96545.03
2022-10-31T18:54:24.955Z,96550.94
2022-10-31T18:56:53.987Z,96543.13
2022-10-31T18:59:22.784Z,96551.56
2022-10-31T19:01:53.563Z,96548.31
2022-10-31T19:04:23.976Z,96562.34
2022-10-31T19:06:52.306Z,96557.72
2022-10-31T19:09:22.830Z,96554.25
2022-10-31T19:11:52.901Z,96549.63
2022-10-31T19:14:24.393Z,96551.56
2022-10-31T19:16:52.573Z,96559.41
2022-10-31T19:19:21.095Z,96557.56
2022-10-31T19:21:51.271Z,96557.03
2022-10-31T19:24:21.154Z,96546.16
2022-10-31T19:26:51.597Z,96556.72
2022-10-31T19:29:19.439Z,96560.72
2022-10-31T19:31:51.289Z,96560.34
2022-10-31T19:34:19.372Z,96555.66
2022-10-31T19:36:48.715Z,96556.47
2022-10-31T19:39:19.474Z,96547.66
2022-10-31T19:41:49.087Z,96557.78
2022-10-31T19:44:17.758Z,96553.69
2022-10-31T19:46:53.909Z,96556.97
2022-10-31T19:49:21.797Z,96564.50
2022-10-31T19:51:49.139Z,96556.16
2022-10-31T19:54:19.147Z,96553.19
2022-10-31T19:56:47.137Z,96544.53
2022-10-31T19:59:15.901Z,96548.63
2022-10-31T20:01:46.699Z,96556.16
2022-10-31T20:04:18.062Z,96551.09
2022-10-31T20:06:46.109Z,96550.50
2022-10-31T20:09:16.509Z,96551.09
2022-10-31T20:11:47.331Z,96553.78
2022-10-31T20:14:16.558Z,96560.81
2022-10-31T20:16:45.531Z,96553.69
2022-10-31T20:19:15.690Z,96552.06
2022-10-31T20:21:45.218Z,96549.38
2022-10-31T20:24:14.979Z,96543.97
2022-10-31T20:26:42.766Z,96547.97
2022-10-31T20:29:14.639Z,96545.78
2022-10-31T20:31:44.033Z,96551.44
2022-10-31T20:34:16.108Z,96556.63
2022-10-31T20:36:44.212Z,96554.22
2022-10-31T20:39:14.394Z,96555.84
2022-10-31T20:41:43.109Z,96550.75
2022-10-31T20:44:12.878Z,96543.97
2022-10-31T20:46:43.577Z,96534.00
2022-10-31T20:49:13.160Z,96544.06
2022-10-31T20:51:44.431Z,96546.31
2022-10-31T20:54:15.049Z,96545.19
2022-10-31T20:56:42.490Z,96550.59
2022-10-31T20:59:11.670Z,96548.09
2022-10-31T21:01:43.913Z,96540.47
2022-10-31T21:04:11.601Z,96549.09
2022-10-31T21:06:49.051Z,96539.41
2022-10-31T21:09:17.710Z,96539.16
2022-10-31T21:11:45.009Z,96541.63
2022-10-31T21:14:12.835Z,96539.50
2022-10-31T21:16:40.233Z,96534.41
2022-10-31T21:19:09.245Z,96534.88
2022-10-31T21:21:39.588Z,96535.47
2022-10-31T21:24:14.068Z,96531.16
2022-10-31T21:26:43.394Z,96533.34
2022-10-31T21:29:12.756Z,96533.09
2022-10-31T21:31:40.647Z,96543.38
2022-10-31T21:34:10.307Z,96540.16
2022-10-31T21:36:39.236Z,96539.53
2022-10-31T21:39:09.534Z,96534.75
2022-10-31T21:41:37.722Z,96543.13
2022-10-31T21:44:07.577Z,96550.97
2022-10-31T21:46:36.298Z,96547.19
2022-10-31T21:49:06.197Z,96554.53
2022-10-31T21:51:38.097Z,96538.53
2022-10-31T21:54:10.545Z,96552.13
2022-10-31T21:56:38.427Z,96550.47
2022-10-31T21:59:06.608Z,96553.63
2022-10-31T22:01:35.865Z,96546.09
2022-10-31T22:04:04.979Z,96549.13
2022-10-31T22:06:36.502Z,96548.91
2022-10-31T22:09:06.091Z,96548.91
2022-10-31T22:11:37.739Z,96552.13
2022-10-31T22:14:05.135Z,96564.22
2022-10-31T22:16:35.238Z,96560.78
2022-10-31T22:19:03.894Z,96548.66
2022-10-31T22:21:36.110Z,96553.19
2022-10-31T22:24:07.449Z,96552.44
2022-10-31T22:26:36.998Z,96558.38
2022-10-31T22:29:05.297Z,96558.63
2022-10-31T22:31:34.284Z,96555.94
2022-10-31T22:34:01.744Z,96551.59
2022-10-31T22:36:30.546Z,96543.72
2022-10-31T22:38:58.400Z,96536.22
2022-10-31T22:41:27.844Z,96540.78
2022-10-31T22:43:56.999Z,96538.63
2022-10-31T22:46:25.780Z,96540.78
2022-10-31T22:48:55.339Z,96539.69
2022-10-31T22:51:23.825Z,96548.59
2022-10-31T22:53:51.598Z,96539.16
2022-10-31T22:56:23.127Z,96546.25
2022-10-31T22:58:50.527Z,96544.56
2022-10-31T23:01:23.267Z,96543.81
2022-10-31T23:03:51.224Z,96540.53
2022-10-31T23:06:20.640Z,96542.41
2022-10-31T23:08:48.882Z,96538.41
2022-10-31T23:11:21.360Z,96535.94
2022-10-31T23:13:50.096Z,96532.69
2022-10-31T23:16:18.868Z,96536.78
2022-10-31T23:18:50.559Z,96540.78
2022-10-31T23:21:18.232Z,96529.47
2022-10-31T23:23:46.848Z,96541.91
2022-10-31T23:26:16.952Z,96538.41
2022-10-31T23:28:47.153Z,96540.03
2022-10-31T23:31:16.197Z,96532.75
2022-10-31T23:33:47.796Z,96544.34
2022-10-31T23:36:15.853Z,96528.28
2022-10-31T23:38:44.591Z,96529.47
2022-10-31T23:41:14.360Z,96526.50
2022-10-31T23:43:45.022Z,96530.25
2022-10-31T23:46:14.670Z,96535.16
2022-10-31T23:48:43.710Z,96540.28
2022-10-31T23:51:14.779Z,96533.84
2022-10-31T23:53:44.594Z,96532.19
2022-10-31T23:56:14.827Z,96536.47
2022-10-31T23:58:43.913Z,96530.56
